createdAt,value
2019-05-14T00:02:12.248Z,7.08
2019-05-14T00:04:42.314Z,6.87
2019-05-14T00:07:11.704Z,7.00
2019-05-14T00:09:41.438Z,6.87
2019-05-14T00:12:11.290Z,6.93
2019-05-14T00:14:43.568Z,7.10
2019-05-14T00:17:11.274Z,6.93
2019-05-14T00:19:41.675Z,6.89
2019-05-14T00:22:11.602Z,6.70
2019-05-14T00:24:41.685Z,6.56
2019-05-14T00:27:11.480Z,6.60
2019-05-14T00:29:41.762Z,6.56
2019-05-14T00:32:11.260Z,6.40
2019-05-14T00:34:42.219Z,6.41
2019-05-14T00:37:11.579Z,6.40
2019-05-14T00:39:41.605Z,6.37
2019-05-14T00:42:12.431Z,6.43
2019-05-14T00:44:53.792Z,6.20
2019-05-14T00:47:11.439Z,6.26
2019-05-14T00:49:42.219Z,6.17
2019-05-14T00:52:11.688Z,6.16
2019-05-14T00:54:41.723Z,6.06
2019-05-14T00:57:11.894Z,5.92
2019-05-14T00:59:41.703Z,5.95
2019-05-14T01:02:11.446Z,6.01
2019-05-14T01:04:42.589Z,5.89
2019-05-14T01:07:11.941Z,5.83
2019-05-14T01:09:42.027Z,5.95
2019-05-14T01:12:12.226Z,5.77
2019-05-14T01:14:42.325Z,5.67
2019-05-14T01:17:11.474Z,5.66
2019-05-14T01:19:42.463Z,5.71
2019-05-14T01:22:12.455Z,5.53
2019-05-14T01:24:41.838Z,5.41
2019-05-14T01:27:12.367Z,5.36
2019-05-14T01:29:42.440Z,5.51
2019-05-14T01:32:11.867Z,5.49
2019-05-14T01:34:41.897Z,5.55
2019-05-14T01:37:11.632Z,5.41
2019-05-14T01:39:41.776Z,5.28
2019-05-14T01:42:12.577Z,5.24
2019-05-14T01:44:41.559Z,5.31
2019-05-14T01:47:12.398Z,5.45
2019-05-14T01:49:42.756Z,5.38
2019-05-14T01:52:11.532Z,5.23
2019-05-14T01:54:42.390Z,5.21
2019-05-14T01:57:11.595Z,5.18
2019-05-14T01:59:42.555Z,5.02
2019-05-14T02:02:11.736Z,4.85
2019-05-14T02:04:42.662Z,4.83
2019-05-14T02:07:11.734Z,5.19
2019-05-14T02:09:42.044Z,4.97
2019-05-14T02:12:11.782Z,4.77
2019-05-14T02:14:42.523Z,4.87
2019-05-14T02:17:12.443Z,4.84
2019-05-14T02:19:42.555Z,4.94
2019-05-14T02:22:11.534Z,4.94
2019-05-14T02:24:41.830Z,4.92
2019-05-14T02:27:12.347Z,5.03
2019-05-14T02:29:42.023Z,5.23
2019-05-14T02:32:11.117Z,5.18
2019-05-14T02:34:40.434Z,5.13
2019-05-14T02:37:09.715Z,5.12
2019-05-14T02:39:40.887Z,5.08
2019-05-14T02:42:09.852Z,4.94
2019-05-14T02:44:40.765Z,4.78
2019-05-14T02:47:10.168Z,4.79
2019-05-14T02:49:39.899Z,4.82
2019-05-14T02:52:09.929Z,4.85
2019-05-14T02:54:40.317Z,4.88
2019-05-14T02:57:10.622Z,4.88
2019-05-14T02:59:39.967Z,4.79
2019-05-14T03:02:09.895Z,4.73
2019-05-14T03:04:39.699Z,4.69
2019-05-14T03:07:10.687Z,4.74
2019-05-14T03:09:40.484Z,4.76
2019-05-14T03:12:10.241Z,4.79
2019-05-14T03:14:39.869Z,4.82
2019-05-14T03:17:10.427Z,4.81
2019-05-14T03:19:40.598Z,4.77
2019-05-14T03:22:10.211Z,4.89
2019-05-14T03:24:39.847Z,4.85
2019-05-14T03:27:09.863Z,4.87
2019-05-14T03:29:40.087Z,4.79
2019-05-14T03:32:12.848Z,4.79
2019-05-14T03:34:42.872Z,4.92
2019-05-14T03:37:12.850Z,4.91
2019-05-14T03:39:41.203Z,4.93
2019-05-14T03:42:09.906Z,4.96
2019-05-14T03:44:39.869Z,4.93
2019-05-14T03:47:10.360Z,4.95
2019-05-14T03:49:40.035Z,4.95
2019-05-14T03:52:09.654Z,4.94
2019-05-14T03:54:40.597Z,4.96
2019-05-14T03:57:09.821Z,4.94
2019-05-14T03:59:40.185Z,4.92
2019-05-14T04:02:09.823Z,4.87
2019-05-14T04:04:39.517Z,4.94
2019-05-14T04:07:09.914Z,5.01
2019-05-14T04:09:41.667Z,4.92
2019-05-14T04:12:11.853Z,5.00
2019-05-14T04:14:44.021Z,5.09
2019-05-14T04:17:17.324Z,5.10
2019-05-14T04:19:49.507Z,4.99
2019-05-14T04:22:22.675Z,5.00
2019-05-14T04:24:53.715Z,5.00
2019-05-14T04:27:23.956Z,5.07
2019-05-14T04:29:52.938Z,5.16
2019-05-14T04:32:21.666Z,5.19
2019-05-14T04:34:50.432Z,5.27
2019-05-14T04:37:20.063Z,5.30
2019-05-14T04:39:50.327Z,5.45
2019-05-14T04:42:20.318Z,5.35
2019-05-14T04:44:50.554Z,5.54
2019-05-14T04:47:31.215Z,5.53
2019-05-14T04:49:50.763Z,5.62
2019-05-14T04:52:20.438Z,5.54
2019-05-14T04:54:50.076Z,5.56
2019-05-14T04:57:21.379Z,5.78
2019-05-14T04:59:49.847Z,5.93
2019-05-14T05:02:19.902Z,6.00
2019-05-14T05:04:50.591Z,6.20
2019-05-14T05:07:19.426Z,6.29
2019-05-14T05:09:50.122Z,6.12
2019-05-14T05:12:19.717Z,6.14
2019-05-14T05:14:49.242Z,6.42
2019-05-14T05:17:19.608Z,6.47
2019-05-14T05:19:51.486Z,6.33
2019-05-14T05:22:19.685Z,6.49
2019-05-14T05:24:48.661Z,6.61
2019-05-14T05:27:18.445Z,6.47
2019-05-14T05:29:48.605Z,6.62
2019-05-14T05:32:19.478Z,6.65
2019-05-14T05:34:48.402Z,6.80
2019-05-14T05:37:19.014Z,6.77
2019-05-14T05:39:49.057Z,6.74
2019-05-14T05:42:18.776Z,6.78
2019-05-14T05:44:48.450Z,6.75
2019-05-14T05:47:18.276Z,6.91
2019-05-14T05:49:48.828Z,7.02
2019-05-14T05:52:19.193Z,7.02
2019-05-14T05:54:49.002Z,7.10
2019-05-14T05:57:18.810Z,7.24
2019-05-14T05:59:48.533Z,7.31
2019-05-14T06:02:18.609Z,7.31
2019-05-14T06:04:48.907Z,7.41
2019-05-14T06:07:18.386Z,7.55
2019-05-14T06:09:48.301Z,7.61
2019-05-14T06:12:19.036Z,7.66
2019-05-14T06:14:48.799Z,7.28
2019-05-14T06:17:19.177Z,7.61
2019-05-14T06:19:48.612Z,7.61
2019-05-14T06:22:18.873Z,7.81
2019-05-14T06:24:48.608Z,7.79
2019-05-14T06:27:18.262Z,7.89
2019-05-14T06:29:48.886Z,7.87
2019-05-14T06:32:18.654Z,8.02
2019-05-14T06:34:48.872Z,8.00
2019-05-14T06:37:19.218Z,8.33
2019-05-14T06:39:48.528Z,8.55
2019-05-14T06:42:19.341Z,8.75
2019-05-14T06:44:49.324Z,8.77
2019-05-14T06:47:18.418Z,8.66
2019-05-14T06:49:48.809Z,8.78
2019-05-14T06:52:18.797Z,8.89
2019-05-14T06:54:49.690Z,8.95
2019-05-14T06:57:18.263Z,9.12
2019-05-14T06:59:48.420Z,8.81
2019-05-14T07:02:19.400Z,9.29
2019-05-14T07:04:48.573Z,9.59
2019-05-14T07:07:20.317Z,9.79
2019-05-14T07:09:48.851Z,9.91
2019-05-14T07:12:19.210Z,9.93
2019-05-14T07:14:48.341Z,10.34
2019-05-14T07:17:18.348Z,10.13
2019-05-14T07:19:48.980Z,10.00
2019-05-14T07:22:19.629Z,10.04
2019-05-14T07:24:49.719Z,10.12
2019-05-14T07:27:19.350Z,9.90
2019-05-14T07:29:49.160Z,10.14
2019-05-14T07:32:19.181Z,10.42
2019-05-14T07:34:48.257Z,10.84
2019-05-14T07:37:18.114Z,10.91
2019-05-14T07:39:48.742Z,10.89
2019-05-14T07:42:18.337Z,11.12
2019-05-14T07:44:48.587Z,11.21
2019-05-14T07:47:18.713Z,12.11
2019-05-14T07:49:49.064Z,12.15
2019-05-14T07:52:19.742Z,12.83
2019-05-14T07:54:48.528Z,12.53
2019-05-14T07:57:19.142Z,13.10
2019-05-14T07:59:48.426Z,13.55
2019-05-14T08:02:19.587Z,13.45
2019-05-14T08:04:48.664Z,14.92
2019-05-14T08:07:18.073Z,15.97
2019-05-14T08:09:48.039Z,16.04
2019-05-14T08:12:19.140Z,16.52
2019-05-14T08:15:08.602Z,15.56
2019-05-14T08:17:19.014Z,15.81
2019-05-14T08:19:49.120Z,15.13
2019-05-14T08:22:18.708Z,14.04
2019-05-14T08:24:48.900Z,16.42
2019-05-14T08:27:19.188Z,17.24
2019-05-14T08:29:48.668Z,17.64
2019-05-14T08:32:19.137Z,16.52
2019-05-14T08:34:48.242Z,16.80
2019-05-14T08:37:18.913Z,17.12
2019-05-14T08:39:48.726Z,17.40
2019-05-14T08:42:18.603Z,16.76
2019-05-14T08:44:50.921Z,16.49
2019-05-14T08:47:18.412Z,17.76
2019-05-14T08:49:50.422Z,17.10
2019-05-14T08:52:19.190Z,16.22
2019-05-14T08:54:50.524Z,17.80
2019-05-14T08:57:19.102Z,17.37
2019-05-14T08:59:48.647Z,16.75
2019-05-14T09:02:19.680Z,19.09
2019-05-14T09:04:53.571Z,18.45
2019-05-14T09:07:18.813Z,17.88
2019-05-14T09:09:48.846Z,17.14
2019-05-14T09:12:18.775Z,16.62
2019-05-14T09:14:48.406Z,17.32
2019-05-14T09:17:18.512Z,17.63
2019-05-14T09:19:58.775Z,18.93
2019-05-14T09:22:18.487Z,20.39
2019-05-14T09:24:49.089Z,18.98
2019-05-14T09:27:19.283Z,17.70
2019-05-14T09:29:48.561Z,17.70
2019-05-14T09:32:19.092Z,16.29
2019-05-14T09:34:48.792Z,17.83
2019-05-14T09:37:19.247Z,18.67
2019-05-14T09:39:48.791Z,17.48
2019-05-14T09:42:19.617Z,16.89
2019-05-14T09:44:49.043Z,17.38
2019-05-14T09:47:18.937Z,16.86
2019-05-14T09:49:49.150Z,17.54
2019-05-14T09:52:18.674Z,16.08
2019-05-14T09:54:49.604Z,17.51
2019-05-14T09:57:18.954Z,17.10
2019-05-14T09:59:48.049Z,16.95
2019-05-14T10:02:16.761Z,16.31
2019-05-14T10:04:45.478Z,16.70
2019-05-14T10:07:15.821Z,16.85
2019-05-14T10:09:44.580Z,16.46
2019-05-14T10:12:13.128Z,16.15
2019-05-14T10:14:42.198Z,17.95
2019-05-14T10:17:10.791Z,18.65
2019-05-14T10:19:39.727Z,18.55
2019-05-14T10:22:08.751Z,18.67
2019-05-14T10:24:38.685Z,15.85
2019-05-14T10:27:09.058Z,16.65
2019-05-14T10:29:39.447Z,17.01
2019-05-14T10:32:08.863Z,15.59
2019-05-14T10:34:37.606Z,16.47
2019-05-14T10:37:08.660Z,16.53
2019-05-14T10:39:39.183Z,17.93
2019-05-14T10:42:08.907Z,18.94
2019-05-14T10:44:38.796Z,19.07
2019-05-14T10:47:09.250Z,19.22
2019-05-14T10:49:38.734Z,16.64
2019-05-14T10:52:08.400Z,15.76
2019-05-14T10:54:40.271Z,16.74
2019-05-14T10:57:09.643Z,17.21
2019-05-14T10:59:38.071Z,17.79
2019-05-14T11:02:11.622Z,19.01
2019-05-14T11:04:38.993Z,19.35
2019-05-14T11:07:07.806Z,17.69
2019-05-14T11:09:38.122Z,17.92
2019-05-14T11:12:08.910Z,18.71
2019-05-14T11:14:38.774Z,18.50
2019-05-14T11:17:11.824Z,18.74
2019-05-14T11:19:38.985Z,19.62
2019-05-14T11:22:08.473Z,20.36
2019-05-14T11:24:38.614Z,21.44
2019-05-14T11:27:07.650Z,22.79
2019-05-14T11:29:38.725Z,22.33
2019-05-14T11:32:09.617Z,19.90
2019-05-14T11:34:38.981Z,19.90
2019-05-14T11:37:08.532Z,19.66
2019-05-14T11:39:37.958Z,19.82
2019-05-14T11:42:08.519Z,21.21
2019-05-14T11:44:38.205Z,21.21
2019-05-14T11:47:08.986Z,20.41
2019-05-14T11:49:37.663Z,20.23
2019-05-14T11:52:10.431Z,21.98
2019-05-14T11:54:40.873Z,22.77
2019-05-14T11:57:11.653Z,22.06
2019-05-14T11:59:39.120Z,22.07
2019-05-14T12:02:09.682Z,22.38
2019-05-14T12:04:39.116Z,22.26
2019-05-14T12:07:09.604Z,21.76
2019-05-14T12:09:39.255Z,22.57
2019-05-14T12:12:12.342Z,22.70
2019-05-14T12:14:38.914Z,21.39
2019-05-14T12:17:09.401Z,21.76
2019-05-14T12:19:39.400Z,20.67
2019-05-14T12:22:11.765Z,19.17
2019-05-14T12:24:39.190Z,20.02
2019-05-14T12:27:08.786Z,21.01
2019-05-14T12:29:39.810Z,18.35
2019-05-14T12:32:12.477Z,20.05
2019-05-14T12:34:38.976Z,21.47
2019-05-14T12:37:09.041Z,19.30
2019-05-14T12:39:37.852Z,18.98
2019-05-14T12:42:10.007Z,18.20
2019-05-14T12:44:40.537Z,19.79
2019-05-14T12:47:09.434Z,21.08
2019-05-14T12:49:38.840Z,21.61
2019-05-14T12:52:19.023Z,21.26
2019-05-14T12:54:38.987Z,22.36
2019-05-14T12:57:10.266Z,19.72
2019-05-14T12:59:38.909Z,19.72
2019-05-14T13:02:09.652Z,21.50
2019-05-14T13:04:41.731Z,21.50
2019-05-14T13:07:10.371Z,22.66
2019-05-14T13:09:38.968Z,21.51
2019-05-14T13:12:11.249Z,20.62
2019-05-14T13:14:39.470Z,22.15
2019-05-14T13:17:09.302Z,24.05
2019-05-14T13:19:38.100Z,19.95
2019-05-14T13:22:13.599Z,18.52
2019-05-14T13:24:39.423Z,20.38
2019-05-14T13:27:09.445Z,20.72
2019-05-14T13:29:38.315Z,19.91
2019-05-14T13:32:12.019Z,21.79
2019-05-14T13:34:39.576Z,20.92
2019-05-14T13:37:08.457Z,21.93
2019-05-14T13:39:39.932Z,22.56
2019-05-14T13:42:11.639Z,22.05
2019-05-14T13:44:38.607Z,22.88
2019-05-14T13:47:09.177Z,22.35
2019-05-14T13:49:39.111Z,21.82
2019-05-14T13:52:09.335Z,22.06
2019-05-14T13:54:39.391Z,22.47
2019-05-14T13:57:11.557Z,21.21
2019-05-14T13:59:44.086Z,20.16
2019-05-14T14:02:10.103Z,19.20
2019-05-14T14:04:39.110Z,20.24
2019-05-14T14:07:09.104Z,20.04
2019-05-14T14:09:39.505Z,19.69
2019-05-14T14:12:08.809Z,19.69
2019-05-14T14:14:38.679Z,18.20
2019-05-14T14:17:07.906Z,20.74
2019-05-14T14:19:38.747Z,20.11
2019-05-14T14:22:09.921Z,19.47
2019-05-14T14:24:38.724Z,17.88
2019-05-14T14:27:09.131Z,17.93
2019-05-14T14:29:39.593Z,20.23
2019-05-14T14:32:11.360Z,20.45
2019-05-14T14:34:41.415Z,20.99
2019-05-14T14:37:10.484Z,20.09
2019-05-14T14:39:39.144Z,20.66
2019-05-14T14:42:07.931Z,20.52
2019-05-14T14:44:39.141Z,21.69
2019-05-14T14:47:08.068Z,21.20
2019-05-14T14:49:42.345Z,20.77
2019-05-14T14:52:11.772Z,19.87
2019-05-14T14:54:38.420Z,19.87
2019-05-14T14:57:08.484Z,18.26
2019-05-14T14:59:39.097Z,18.57
2019-05-14T15:02:10.270Z,18.97
2019-05-14T15:04:39.671Z,18.39
2019-05-14T15:07:09.843Z,18.10
2019-05-14T15:09:40.609Z,18.32
2019-05-14T15:12:09.278Z,18.34
2019-05-14T15:14:39.574Z,18.36
2019-05-14T15:17:09.492Z,17.69
2019-05-14T15:19:39.488Z,17.82
2019-05-14T15:22:10.863Z,17.93
2019-05-14T15:24:39.672Z,18.44
2019-05-14T15:27:14.813Z,18.72
2019-05-14T15:29:42.725Z,17.68
2019-05-14T15:32:09.496Z,16.95
2019-05-14T15:34:38.288Z,17.20
2019-05-14T15:37:08.968Z,17.21
2019-05-14T15:39:39.115Z,17.22
2019-05-14T15:42:13.350Z,17.79
2019-05-14T15:44:48.822Z,17.58
2019-05-14T15:47:11.632Z,17.60
2019-05-14T15:49:39.611Z,17.54
2019-05-14T15:52:08.523Z,17.92
2019-05-14T15:54:45.795Z,17.47
2019-05-14T15:57:09.154Z,17.40
2019-05-14T15:59:39.141Z,17.50
2019-05-14T16:02:09.450Z,17.32
2019-05-14T16:04:38.966Z,17.51
2019-05-14T16:07:09.518Z,16.82
2019-05-14T16:09:39.677Z,16.19
2019-05-14T16:12:09.583Z,16.38
2019-05-14T16:14:38.862Z,16.54
2019-05-14T16:17:11.283Z,16.53
2019-05-14T16:19:39.201Z,16.86
2019-05-14T16:22:09.769Z,16.82
2019-05-14T16:24:53.005Z,16.90
2019-05-14T16:27:09.118Z,17.13
2019-05-14T16:29:45.185Z,16.64
2019-05-14T16:32:08.611Z,16.87
2019-05-14T16:34:40.838Z,16.97
2019-05-14T16:37:11.139Z,16.38
2019-05-14T16:39:39.185Z,16.75
2019-05-14T16:42:07.950Z,16.82
2019-05-14T16:44:38.945Z,16.41
2019-05-14T16:47:09.734Z,15.83
2019-05-14T16:49:37.759Z,15.50
2019-05-14T16:52:08.847Z,15.54
2019-05-14T16:54:39.318Z,15.59
2019-05-14T16:57:10.997Z,15.87
2019-05-14T16:59:39.495Z,15.63
2019-05-14T17:02:09.176Z,15.60
2019-05-14T17:04:38.852Z,15.73
2019-05-14T17:07:09.541Z,15.60
2019-05-14T17:09:38.603Z,15.31
2019-05-14T17:12:08.553Z,15.19
2019-05-14T17:14:38.548Z,15.44
2019-05-14T17:17:09.223Z,15.22
2019-05-14T17:19:38.583Z,14.99
2019-05-14T17:22:23.367Z,14.90
2019-05-14T17:24:39.792Z,14.89
2019-05-14T17:27:08.900Z,14.95
2019-05-14T17:29:38.884Z,14.96
2019-05-14T17:32:07.753Z,14.82
2019-05-14T17:34:38.671Z,14.86
2019-05-14T17:37:08.944Z,14.89
2019-05-14T17:39:38.730Z,14.84
2019-05-14T17:42:11.438Z,14.83
2019-05-14T17:44:38.852Z,14.88
2019-05-14T17:47:07.566Z,14.89
2019-05-14T17:49:36.192Z,14.61
2019-05-14T17:52:04.942Z,14.72
2019-05-14T17:54:33.831Z,14.76
2019-05-14T17:57:02.629Z,14.68
2019-05-14T17:59:33.545Z,14.70
2019-05-14T18:02:01.878Z,14.61
2019-05-14T18:04:30.504Z,14.67
2019-05-14T18:06:59.333Z,14.40
2019-05-14T18:09:29.368Z,14.61
2019-05-14T18:11:58.625Z,14.45
2019-05-14T18:14:28.367Z,14.40
2019-05-14T18:16:58.492Z,14.31
2019-05-14T18:19:28.976Z,14.27
2019-05-14T18:21:59.386Z,14.26
2019-05-14T18:24:28.721Z,14.11
2019-05-14T18:26:57.381Z,14.25
2019-05-14T18:29:25.945Z,14.12
2019-05-14T18:31:55.363Z,14.13
2019-05-14T18:34:24.147Z,14.11
2019-05-14T18:36:52.794Z,14.01
2019-05-14T18:39:21.594Z,13.89
2019-05-14T18:41:50.276Z,13.90
2019-05-14T18:44:19.148Z,13.81
2019-05-14T18:46:48.647Z,13.73
2019-05-14T18:49:19.452Z,13.67
2019-05-14T18:51:50.203Z,13.59
2019-05-14T18:54:18.984Z,13.50
2019-05-14T18:56:48.910Z,13.33
2019-05-14T18:59:21.295Z,13.17
2019-05-14T19:01:48.908Z,13.25
2019-05-14T19:04:18.803Z,13.19
2019-05-14T19:06:48.242Z,13.02
2019-05-14T19:09:18.578Z,12.95
2019-05-14T19:11:48.284Z,12.79
2019-05-14T19:14:18.781Z,12.78
2019-05-14T19:16:48.988Z,12.67
2019-05-14T19:19:17.830Z,12.53
2019-05-14T19:21:48.700Z,12.41
2019-05-14T19:24:18.907Z,12.25
2019-05-14T19:26:49.373Z,12.11
2019-05-14T19:29:18.549Z,11.93
2019-05-14T19:31:48.721Z,11.85
2019-05-14T19:34:19.216Z,11.72
2019-05-14T19:36:48.037Z,11.65
2019-05-14T19:39:18.752Z,11.45
2019-05-14T19:41:48.383Z,11.33
2019-05-14T19:44:19.124Z,11.26
2019-05-14T19:46:49.219Z,11.24
2019-05-14T19:49:18.415Z,11.10
2019-05-14T19:51:48.285Z,10.97
2019-05-14T19:54:19.473Z,10.93
2019-05-14T19:56:56.518Z,10.79
2019-05-14T19:59:18.410Z,10.67
2019-05-14T20:01:48.456Z,10.61
2019-05-14T20:04:18.341Z,10.62
2019-05-14T20:06:49.268Z,10.57
2019-05-14T20:09:17.902Z,10.50
2019-05-14T20:11:48.900Z,10.45
2019-05-14T20:14:17.272Z,10.39
2019-05-14T20:16:46.661Z,10.23
2019-05-14T20:19:16.656Z,10.34
2019-05-14T20:21:45.523Z,10.22
2019-05-14T20:24:14.168Z,10.18
2019-05-14T20:26:45.601Z,10.08
2019-05-14T20:29:13.311Z,9.99
2019-05-14T20:31:41.849Z,9.93
2019-05-14T20:34:10.529Z,9.88
2019-05-14T20:36:39.218Z,9.84
2019-05-14T20:39:08.750Z,9.83
2019-05-14T20:41:38.431Z,9.74
2019-05-14T20:44:07.448Z,9.79
2019-05-14T20:46:38.096Z,9.65
2019-05-14T20:49:08.772Z,9.66
2019-05-14T20:51:38.896Z,9.57
2019-05-14T20:54:08.881Z,9.51
2019-05-14T20:56:39.997Z,9.42
2019-05-14T20:59:08.412Z,9.39
2019-05-14T21:01:38.707Z,9.46
2019-05-14T21:04:09.039Z,9.44
2019-05-14T21:06:39.104Z,9.40
2019-05-14T21:09:08.193Z,9.26
2019-05-14T21:11:38.449Z,9.24
2019-05-14T21:14:08.988Z,9.09
2019-05-14T21:16:39.271Z,9.08
2019-05-14T21:19:08.690Z,9.09
2019-05-14T21:21:38.317Z,9.12
2019-05-14T21:24:08.895Z,9.09
2019-05-14T21:26:39.886Z,8.94
2019-05-14T21:29:08.047Z,8.93
2019-05-14T21:31:38.532Z,8.94
2019-05-14T21:34:08.159Z,8.98
2019-05-14T21:36:38.960Z,9.02
2019-05-14T21:39:08.117Z,8.90
2019-05-14T21:41:38.699Z,8.99
2019-05-14T21:44:08.574Z,8.98
2019-05-14T21:46:39.885Z,8.87
2019-05-14T21:49:10.910Z,8.81
2019-05-14T21:51:39.189Z,8.82
2019-05-14T21:54:09.455Z,8.85
2019-05-14T21:56:38.798Z,8.84
2019-05-14T21:59:09.530Z,8.80
2019-05-14T22:01:39.330Z,8.94
2019-05-14T22:04:11.331Z,8.84
2019-05-14T22:06:41.433Z,9.07
2019-05-14T22:09:09.703Z,8.89
2019-05-14T22:11:39.377Z,8.99
2019-05-14T22:14:08.180Z,9.15
2019-05-14T22:16:38.164Z,9.09
2019-05-14T22:19:08.528Z,8.97
2019-05-14T22:21:38.623Z,8.98
2019-05-14T22:24:07.744Z,8.91
2019-05-14T22:26:38.641Z,8.95
2019-05-14T22:29:08.282Z,8.92
2019-05-14T22:31:38.795Z,9.03
2019-05-14T22:34:08.893Z,9.00
2019-05-14T22:36:38.647Z,8.95
2019-05-14T22:39:07.496Z,8.81
2019-05-14T22:41:38.074Z,9.05
2019-05-14T22:44:09.033Z,9.15
2019-05-14T22:46:39.955Z,9.16
2019-05-14T22:49:09.185Z,9.30
2019-05-14T22:51:38.355Z,9.19
2019-05-14T22:54:08.672Z,9.25
2019-05-14T22:56:38.922Z,9.12
2019-05-14T22:59:07.810Z,9.11
2019-05-14T23:01:38.589Z,9.05
2019-05-14T23:04:09.086Z,8.94
2019-05-14T23:06:38.280Z,8.82
2019-05-14T23:09:09.052Z,8.87
2019-05-14T23:11:38.473Z,8.95
2019-05-14T23:14:07.340Z,9.10
2019-05-14T23:16:39.278Z,8.97
2019-05-14T23:19:07.968Z,9.06
2019-05-14T23:21:38.847Z,9.11
2019-05-14T23:24:09.131Z,9.14
2019-05-14T23:26:37.969Z,8.97
2019-05-14T23:29:06.536Z,8.96
2019-05-14T23:31:35.211Z,8.91
2019-05-14T23:34:03.725Z,8.88
2019-05-14T23:36:32.456Z,8.93
2019-05-14T23:39:01.626Z,8.95
2019-05-14T23:41:30.150Z,8.86
2019-05-14T23:43:58.796Z,8.90
2019-05-14T23:46:29.193Z,8.84
2019-05-14T23:48:59.265Z,8.78
2019-05-14T23:51:28.992Z,8.94
2019-05-14T23:53:57.806Z,8.72
2019-05-14T23:56:28.645Z,8.74
2019-05-14T23:59:01.398Z,8.61
